Skip Navigation Links
NOAA logo - Click to go to the NOAA homepage
NOAA's National Weather Service
Alaska Aviation Weather Unit
  NWS logo - Click to go to the NWS homepage
Left Navbar Graphic     09 AKDT = 17 GMT

   
NOAA is celebrating 200 years of science, service, and stewardship. Visit the NOAA 200th celebration Web site to learn more.
USA.gov is the U.S. Government's official Web portal to all Federal, state and local government Web resources and services.
Facebook
NWS on Facebook

Important Change Regarding the AAWU Web Presence

 

Over the last several months, the AAWU has been working to navigate its webpages to a nationally supported server. Security, as well as other needs, have necessitated the change.  In the process, we have made an effort to enhance the functionality of our website, as well as some of our products. As of June 20, 2017, aawu.arh.noaa.gov will be discontinued. The new AAWU web address is weather.gov/aawu. It is now live and will run in-parallel with the old site until it is discontinued. Please send any feedback or questions regarding the new webpages to nws.ar.aawu.webauthors@noaa.gov.  Thank you for your patience during this time of transition.
AAWU Home :: Display TAF Add Bookmark
TAF CYZY 271439Z 2715/2803 VRB03KT P6SM SKC RMK FCST BASED ON AUTO
      OBS.
      NXT FCST BY 271900Z=

METAR CYZY 271100Z AUTO 00000KT 9SM BKN200 BKN220 05/03 A3000 RMK SLP168= METAR CYZY 271200Z AUTO 00000KT 9SM FEW190 BKN220 05/03 A3002 RMK SLP176= METAR CYZY 271300Z AUTO 00000KT 9SM CLR 05/03 A3005 RMK SLP184= CYZY 271400Z AUTO 26004KT 250V050 9SM CLR 09/04 A3007 RMK SLP190= METAR CYZY 271500Z AUTO 00000KT 9SM CLR 12/06 A3009 RMK SLP195= METAR CYZY 271600Z AUTO 33004KT 310V020 9SM CLR 16/04 A3009 RMK SLP194 DENSITY ALT 2700FT= CYZY 271700Z AUTO 33004KT 280V010 9SM CLR 19/02 A3010 RMK SLP198 DENSITY ALT 3000FT=
 Alaska TAF Map

NOAA's National Weather Service
Alaska Aviation Weather Unit
6930 Sand Lake Road
Anchorage, AK 99502-1845
Disclaimer
Credits
Glossary
Privacy Policy
About Us
Career Opportunities
Contact AAWU Internet Services Site last modified: April, 17th 2012